logo
Search for airport 
image banner adimage banner adimage banner ad
image banner ad

EPCE - Cewice

Located in Cewice, Poland

ICAO - EPCE, IATA -

Data provided by Airmate  

General information

Coordinates: N54°24'58" E17°45'48"
Elevation is 505 feet MSL.
Magnetic variation is 6.0000° East
View others Airports in Pomerania

Operational data

Special qualification required
Current time UTC:
Current local time:
Weather
TAF: TAF EPCE 231700Z 2318/2406 15005KT CAVOK BECMG 2322/2401 4000 BR BKN010 BECMG 2401/2406 2000 RADZ BR BKN005
View NOTAMs / SUP AIP / TFR affecting this airport [VIEW]
Communications frequencies: [VIEW]

Runways:

RWY identifierQFULength (ft)Width (ft)SurfaceLDA (ft)
0776°8261197CONC+ASPH8261
25256°8261197CONC+ASPH8261

Airport contact information

Address: Cewice Poland

Satellite view of EPCE